Time;durP1;ratioP1;P1;durP2;ratioP2;P2;SDS_P1;SDS_P2;PMS_P1;PMS_P2;Temp;Humidity;BMP_temperature;BMP_pressure;BME280_temperature;BME280_humidity;BME280_pressure;Samples;Min_cycle;Max_cycle;Signal;HPM_P1;HPM_P2
2022/10/08 00:00:10;;;;;;;8.27;6.38;;;11.10;94.40;;;;;;5050803;28;20218;-64
2022/10/08 00:02:37;;;;;;;6.45;5.85;;;11.10;94.00;;;;;;5051195;28;20277;-63
2022/10/08 00:05:06;;;;;;;7.75;5.80;;;11.00;93.70;;;;;;5052116;28;20676;-64
2022/10/08 00:07:33;;;;;;;9.20;6.38;;;11.00;94.00;;;;;;5050787;28;20186;-64
2022/10/08 00:10:05;;;;;;;6.97;5.80;;;11.00;94.00;;;;;;5052272;28;20190;-64
2022/10/08 00:12:32;;;;;;;7.45;5.93;;;11.00;94.00;;;;;;5051955;28;20282;-65
2022/10/08 00:14:59;;;;;;;6.93;6.22;;;11.00;93.90;;;;;;5052499;28;20256;-64
2022/10/08 00:17:29;;;;;;;8.35;6.00;;;11.00;93.70;;;;;;5051368;28;20183;-63
2022/10/08 00:19:56;;;;;;;6.40;5.80;;;11.00;93.80;;;;;;5051637;28;20218;-64
2022/10/08 00:22:25;;;;;;;6.40;5.28;;;11.00;93.80;;;;;;5051740;28;20186;-63
2022/10/08 00:24:53;;;;;;;6.47;5.88;;;11.00;93.70;;;;;;5051763;28;20198;-63
2022/10/08 00:27:23;;;;;;;6.82;5.85;;;10.90;93.60;;;;;;5051502;28;20594;-64
2022/10/08 00:29:52;;;;;;;8.13;5.63;;;10.90;93.60;;;;;;5051722;28;20305;-64
2022/10/08 00:32:20;;;;;;;6.85;6.15;;;10.90;93.70;;;;;;5051814;28;20272;-63
2022/10/08 00:34:48;;;;;;;6.82;5.75;;;10.80;93.60;;;;;;5051651;28;20195;-63
2022/10/08 00:37:20;;;;;;;9.20;7.60;;;10.80;93.70;;;;;;5051378;28;20244;-63
2022/10/08 00:39:47;;;;;;;10.57;6.78;;;10.80;94.50;;;;;;5051523;28;20300;-64
2022/10/08 00:42:15;;;;;;;8.48;7.65;;;10.70;94.50;;;;;;5051376;28;20194;-64
2022/10/08 00:44:55;;;;;;;8.93;6.95;;;10.70;94.90;;;;;;5051118;28;20194;-64
2022/10/08 00:47:40;;;;;;;7.90;7.05;;;10.80;95.20;;;;;;5050957;28;20188;-65
2022/10/08 00:50:16;;;;;;;8.82;6.97;;;10.80;95.20;;;;;;5051486;28;20252;-65
2022/10/08 00:52:46;;;;;;;6.85;6.15;;;10.80;95.10;;;;;;5051111;28;20263;-64
2022/10/08 00:55:16;;;;;;;7.82;6.00;;;10.80;95.10;;;;;;5051881;28;20195;-64
2022/10/08 00:57:44;;;;;;;10.05;6.55;;;10.80;94.90;;;;;;5050789;28;20186;-64
2022/10/08 01:00:15;;;;;;;6.68;5.70;;;10.80;94.80;;;;;;5051083;28;20676;-64
2022/10/08 01:02:42;;;;;;;7.40;6.70;;;10.80;94.70;;;;;;5051153;28;20565;-64
2022/10/08 01:05:14;;;;;;;9.20;7.03;;;10.80;94.60;;;;;;5051933;28;20649;-64
2022/10/08 01:07:48;;;;;;;8.77;7.55;;;10.80;95.10;;;;;;5051837;28;20612;-64
2022/10/08 01:10:25;;;;;;;8.38;6.90;;;10.80;95.50;;;;;;5052485;28;20202;-64
2022/10/08 01:13:05;;;;;;;8.63;6.65;;;10.80;95.80;;;;;;5051929;28;20205;-64
2022/10/08 01:15:40;;;;;;;7.47;6.72;;;10.90;96.40;;;;;;5052212;28;20193;-64
2022/10/08 01:18:17;;;;;;;9.10;7.25;;;10.90;96.60;;;;;;5051649;28;20185;-63
2022/10/08 01:21:00;;;;;;;8.55;6.75;;;10.80;96.70;;;;;;5052056;28;20217;-64
2022/10/08 01:23:49;;;;;;;9.40;7.70;;;10.80;96.70;;;;;;5032249;28;20277;-63
2022/10/08 01:26:36;;;;;;;8.38;7.45;;;10.80;96.70;;;;;;5033904;28;20198;-64
2022/10/08 01:29:11;;;;;;;7.93;7.13;;;10.90;97.00;;;;;;5050112;28;20187;-65
2022/10/08 01:31:43;;;;;;;7.40;5.97;;;10.90;97.10;;;;;;5050122;28;20236;-64
2022/10/08 01:34:16;;;;;;;8.63;6.95;;;10.90;97.00;;;;;;5050556;28;20194;-64
2022/10/08 01:36:47;;;;;;;7.60;6.60;;;11.00;96.90;;;;;;5050751;28;20218;-63
2022/10/08 01:39:18;;;;;;;7.47;6.00;;;11.00;96.80;;;;;;5051296;28;20201;-65
2022/10/08 01:41:51;;;;;;;7.85;7.05;;;10.90;96.60;;;;;;5051281;28;20203;-64
2022/10/08 01:44:26;;;;;;;8.50;6.40;;;10.90;97.70;;;;;;5051723;28;20201;-63
2022/10/08 01:46:58;;;;;;;8.48;7.57;;;10.80;98.00;;;;;;5051231;28;20620;-63
2022/10/08 01:49:29;;;;;;;7.60;6.45;;;10.80;98.60;;;;;;5052142;28;20194;-64
2022/10/08 01:52:00;;;;;;;7.18;6.47;;;10.90;98.70;;;;;;5051305;28;20571;-63
2022/10/08 01:54:30;;;;;;;7.80;7.03;;;11.00;98.80;;;;;;5051822;28;20282;-63
2022/10/08 01:57:02;;;;;;;6.43;5.82;;;11.00;98.10;;;;;;5053438;28;20190;-64
2022/10/08 01:59:35;;;;;;;7.78;6.63;;;10.90;97.80;;;;;;5055890;28;20217;-64
2022/10/08 02:02:10;;;;;;;7.15;6.07;;;10.90;98.30;;;;;;5055164;28;20214;-64
2022/10/08 02:04:37;;;;;;;6.25;5.65;;;10.90;98.20;;;;;;5055680;28;20221;-64
2022/10/08 02:07:08;;;;;;;7.25;6.50;;;10.90;98.30;;;;;;5055036;28;20304;-64
2022/10/08 02:09:38;;;;;;;7.00;6.18;;;10.90;98.20;;;;;;5055380;28;20200;-64
2022/10/08 02:12:06;;;;;;;7.88;6.75;;;11.00;98.10;;;;;;5054963;28;20233;-64
2022/10/08 02:14:37;;;;;;;8.43;6.85;;;10.90;97.70;;;;;;5055090;28;20186;-64
2022/10/08 02:17:15;;;;;;;6.50;5.85;;;10.90;97.10;;;;;;5055029;28;20182;-64
2022/10/08 02:19:51;;;;;;;7.85;5.00;;;10.90;96.80;;;;;;5055169;28;20255;-64
2022/10/08 02:22:21;;;;;;;6.20;5.60;;;10.90;96.10;;;;;;5054577;28;20218;-64
2022/10/08 02:24:52;;;;;;;6.05;5.45;;;10.90;95.80;;;;;;5055128;28;20186;-64
2022/10/08 02:27:27;;;;;;;7.22;5.13;;;10.80;95.60;;;;;;5055050;28;20187;-64
2022/10/08 02:30:03;;;;;;;5.65;4.82;;;10.80;95.70;;;;;;5054797;28;20194;-64
2022/10/08 02:32:35;;;;;;;5.45;4.75;;;10.80;95.40;;;;;;5051129;28;20661;-63
2022/10/08 02:35:07;;;;;;;5.82;5.22;;;10.80;95.50;;;;;;5053998;28;20198;-64
2022/10/08 02:37:40;;;;;;;5.85;5.25;;;10.70;95.30;;;;;;5055090;28;20229;-64
2022/10/08 02:40:10;;;;;;;5.38;4.88;;;10.60;94.90;;;;;;5053661;28;20191;-64
2022/10/08 02:42:42;;;;;;;5.88;5.28;;;10.50;95.00;;;;;;5054767;28;20217;-64
2022/10/08 02:45:15;;;;;;;5.95;5.05;;;10.50;95.10;;;;;;5054313;28;20191;-63
2022/10/08 02:47:44;;;;;;;5.35;4.75;;;10.40;95.30;;;;;;5054823;28;20198;-63
2022/10/08 02:50:16;;;;;;;5.88;5.38;;;10.50;95.30;;;;;;5054125;28;20191;-64
2022/10/08 02:52:46;;;;;;;6.55;4.60;;;10.50;95.60;;;;;;5055085;28;20573;-63
2022/10/08 02:55:23;;;;;;;6.43;5.18;;;10.40;95.80;;;;;;5053908;28;20187;-63
2022/10/08 02:57:57;;;;;;;8.60;5.57;;;10.40;96.40;;;;;;5054670;28;20194;-64
2022/10/08 03:00:33;;;;;;;6.65;5.45;;;10.40;95.80;;;;;;5053828;28;20224;-63
2022/10/08 03:03:06;;;;;;;5.25;4.32;;;10.40;96.00;;;;;;5054534;28;20193;-63
2022/10/08 03:05:34;;;;;;;5.15;4.65;;;10.40;96.10;;;;;;5054145;28;20187;-64
2022/10/08 03:08:03;;;;;;;5.78;4.75;;;10.40;96.40;;;;;;5054305;28;20248;-65
2022/10/08 03:10:30;;;;;;;5.45;4.70;;;10.40;96.20;;;;;;5053901;28;20236;-64
2022/10/08 03:13:01;;;;;;;6.07;4.32;;;10.30;96.00;;;;;;5054404;28;20251;-64
2022/10/08 03:15:31;;;;;;;4.97;4.50;;;10.20;95.90;;;;;;5054081;28;20240;-64
2022/10/08 03:18:02;;;;;;;6.18;4.70;;;10.20;95.50;;;;;;5054365;28;20541;-64
2022/10/08 03:20:30;;;;;;;7.55;6.70;;;10.10;95.60;;;;;;5053680;28;20225;-63
2022/10/08 03:23:00;;;;;;;6.25;5.65;;;10.00;95.80;;;;;;5054407;28;20186;-63
2022/10/08 03:25:27;;;;;;;6.43;5.55;;;9.90;96.70;;;;;;5053984;28;20676;-65
2022/10/08 03:27:54;;;;;;;6.70;5.50;;;10.00;96.30;;;;;;5053937;28;20186;-63
2022/10/08 03:30:21;;;;;;;5.68;5.13;;;10.00;96.40;;;;;;5054044;28;20190;-63
2022/10/08 03:32:50;;;;;;;8.90;6.10;;;9.90;97.50;;;;;;5053428;28;20187;-63
2022/10/08 03:35:17;;;;;;;8.60;5.68;;;9.90;97.10;;;;;;5053905;28;20194;-63
2022/10/08 03:37:44;;;;;;;5.90;5.20;;;9.90;97.40;;;;;;5053335;28;20746;-63
2022/10/08 03:40:11;;;;;;;17.55;9.27;;;9.90;97.40;;;;;;5053619;28;20198;-64
2022/10/08 03:42:39;;;;;;;11.38;8.75;;;10.00;97.00;;;;;;5053391;28;20190;-64
2022/10/08 03:45:07;;;;;;;14.68;13.05;;;10.00;97.10;;;;;;5053791;28;20252;-63
2022/10/08 03:47:34;;;;;;;15.77;13.25;;;10.00;97.60;;;;;;5053215;28;20190;-64
2022/10/08 03:50:03;;;;;;;14.35;12.85;;;10.00;98.00;;;;;;5053705;28;20187;-64
2022/10/08 03:52:30;;;;;;;16.45;11.63;;;10.10;98.00;;;;;;5052494;28;20187;-64
2022/10/08 03:54:57;;;;;;;13.20;10.00;;;10.10;98.10;;;;;;5052878;28;20583;-64
2022/10/08 03:57:25;;;;;;;16.05;9.82;;;10.10;97.90;;;;;;5051825;28;20202;-64
2022/10/08 03:59:52;;;;;;;13.15;10.65;;;10.10;97.80;;;;;;5053536;28;20528;-64
2022/10/08 04:02:19;;;;;;;12.75;10.52;;;10.10;97.40;;;;;;5053516;28;20218;-64
2022/10/08 04:04:46;;;;;;;13.15;10.63;;;10.20;97.50;;;;;;5053306;28;20187;-64
2022/10/08 04:07:15;;;;;;;11.43;8.82;;;10.20;97.30;;;;;;5052862;28;20194;-64
2022/10/08 04:09:42;;;;;;;8.93;7.43;;;10.20;97.20;;;;;;5053510;28;20244;-64
2022/10/08 04:12:09;;;;;;;6.50;5.78;;;10.30;97.10;;;;;;5052592;28;20236;-63
2022/10/08 04:14:36;;;;;;;6.20;5.60;;;10.30;97.00;;;;;;5053509;28;20614;-64
2022/10/08 04:17:04;;;;;;;5.97;5.35;;;10.30;97.00;;;;;;5053042;28;20186;-63
2022/10/08 04:19:31;;;;;;;13.20;9.48;;;10.20;97.00;;;;;;5052989;28;20187;-64
2022/10/08 04:21:58;;;;;;;47.75;27.70;;;10.20;96.60;;;;;;5052849;28;20215;-63
2022/10/08 04:24:27;;;;;;;30.23;19.48;;;10.10;96.80;;;;;;5053284;28;20226;-64
2022/10/08 04:26:54;;;;;;;22.85;16.55;;;10.10;96.70;;;;;;5052932;28;20190;-64
2022/10/08 04:29:21;;;;;;;18.08;11.43;;;10.10;96.50;;;;;;5052832;28;20201;-63
2022/10/08 04:31:48;;;;;;;10.90;8.20;;;10.10;96.30;;;;;;5052885;28;20189;-64
2022/10/08 04:34:15;;;;;;;9.82;7.95;;;10.10;96.00;;;;;;5053007;28;20620;-64
2022/10/08 04:36:43;;;;;;;8.80;6.40;;;10.10;96.10;;;;;;5052203;28;20218;-65
2022/10/08 04:39:10;;;;;;;8.80;7.40;;;10.10;95.90;;;;;;5052598;28;20190;-64
2022/10/08 04:41:39;;;;;;;6.00;5.40;;;10.10;96.10;;;;;;5053018;28;20271;-64
2022/10/08 04:44:06;;;;;;;46.83;30.20;;;10.10;96.20;;;;;;5052498;28;20195;-65
2022/10/08 04:46:33;;;;;;;28.10;19.67;;;10.10;96.30;;;;;;5052243;28;20427;-64
2022/10/08 04:49:00;;;;;;;20.13;14.77;;;10.10;96.70;;;;;;5052818;28;20198;-63
2022/10/08 04:51:28;;;;;;;18.83;13.38;;;10.20;97.20;;;;;;5052388;28;20660;-64
2022/10/08 04:53:56;;;;;;;11.80;8.80;;;10.20;97.00;;;;;;5052706;28;20244;-63
2022/10/08 04:56:25;;;;;;;11.98;7.85;;;10.20;96.90;;;;;;5051933;28;20182;-64
2022/10/08 04:58:55;;;;;;;9.65;7.05;;;10.20;96.80;;;;;;5052754;28;20661;-64
2022/10/08 05:01:23;;;;;;;10.88;7.78;;;10.20;96.90;;;;;;5051949;28;20210;-63
2022/10/08 05:03:51;;;;;;;7.57;4.88;;;10.20;96.70;;;;;;5052788;28;20201;-64
2022/10/08 05:06:20;;;;;;;7.38;5.10;;;10.20;96.50;;;;;;5052128;28;20198;-64
2022/10/08 05:08:48;;;;;;;6.03;4.50;;;10.20;96.30;;;;;;5052491;28;20190;-64
2022/10/08 05:11:16;;;;;;;6.22;4.85;;;10.20;96.00;;;;;;5052115;28;20198;-64
2022/10/08 05:13:44;;;;;;;11.10;6.70;;;10.20;95.90;;;;;;5052233;28;20190;-64
2022/10/08 05:16:13;;;;;;;11.98;7.97;;;10.10;95.90;;;;;;5052187;28;20186;-64
2022/10/08 05:18:42;;;;;;;9.70;7.22;;;10.10;96.40;;;;;;5052577;28;20549;-64
2022/10/08 05:21:10;;;;;;;13.05;8.02;;;10.10;95.90;;;;;;5052186;28;20206;-64
2022/10/08 05:23:38;;;;;;;10.93;7.53;;;10.10;95.80;;;;;;5052697;28;20194;-64
2022/10/08 05:26:14;;;;;;;15.48;10.75;;;10.10;96.10;;;;;;5051513;28;20192;-64
2022/10/08 05:28:41;;;;;;;22.15;15.52;;;10.10;96.50;;;;;;5052545;28;20197;-64
2022/10/08 05:31:10;;;;;;;11.57;10.07;;;10.20;96.90;;;;;;5046606;28;20190;-65
2022/10/08 05:33:39;;;;;;;7.00;5.90;;;10.30;97.10;;;;;;5051040;28;20196;-63
2022/10/08 05:36:10;;;;;;;9.85;7.25;;;10.40;97.30;;;;;;5053823;28;20316;-64
2022/10/08 05:38:37;;;;;;;5.93;5.10;;;10.50;97.50;;;;;;5053953;28;20284;-64
2022/10/08 05:41:17;;;;;;;5.30;4.80;;;10.60;97.70;;;;;;5053100;28;20624;-64
2022/10/08 05:43:45;;;;;;;6.30;4.45;;;10.60;97.90;;;;;;5051425;28;20236;-64
2022/10/08 05:46:13;;;;;;;6.30;4.50;;;10.70;97.90;;;;;;5054039;28;20550;-64
2022/10/08 05:48:42;;;;;;;5.18;4.10;;;10.80;98.00;;;;;;5054311;28;20186;-64
2022/10/08 05:51:11;;;;;;;5.32;4.05;;;10.90;98.20;;;;;;5054437;28;20190;-64
2022/10/08 05:53:40;;;;;;;6.28;5.40;;;10.90;98.10;;;;;;5054427;28;20187;-64
2022/10/08 05:56:09;;;;;;;8.63;4.20;;;11.00;98.20;;;;;;5050301;28;20192;-64
2022/10/08 05:58:38;;;;;;;7.95;4.35;;;11.10;98.30;;;;;;5054550;28;20215;-63
2022/10/08 06:01:07;;;;;;;6.65;4.32;;;11.10;98.50;;;;;;5053903;28;20186;-64
2022/10/08 06:03:35;;;;;;;4.82;3.95;;;11.20;98.60;;;;;;5053918;28;20198;-64
2022/10/08 06:06:05;;;;;;;6.57;4.72;;;11.20;98.50;;;;;;5054300;28;20201;-64
2022/10/08 06:08:33;;;;;;;6.22;4.50;;;11.30;98.20;;;;;;5054517;28;20190;-64
2022/10/08 06:11:01;;;;;;;10.00;5.43;;;11.40;98.10;;;;;;5053812;28;20573;-64
2022/10/08 06:13:28;;;;;;;10.88;5.22;;;11.40;97.60;;;;;;5054248;28;20195;-64
2022/10/08 06:15:58;;;;;;;37.33;34.13;;;11.40;97.40;;;;;;5054125;28;20289;-64
2022/10/08 06:18:27;;;;;;;28.08;25.25;;;11.50;97.60;;;;;;5054135;28;20226;-64
2022/10/08 06:20:54;;;;;;;11.82;10.63;;;11.50;97.70;;;;;;5049021;28;20190;-64
2022/10/08 06:23:23;;;;;;;18.05;16.35;;;11.60;97.80;;;;;;5053764;28;20222;-64
2022/10/08 06:25:51;;;;;;;22.73;20.73;;;11.60;97.80;;;;;;5053210;28;20186;-64
2022/10/08 06:28:18;;;;;;;46.08;41.88;;;11.70;97.80;;;;;;5053659;28;20186;-64
2022/10/08 06:30:45;;;;;;;26.85;24.45;;;11.80;97.90;;;;;;5053489;28;20233;-64
2022/10/08 06:33:15;;;;;;;9.27;8.32;;;11.80;98.00;;;;;;5053322;28;20190;-64
2022/10/08 06:35:42;;;;;;;8.90;6.55;;;11.90;98.20;;;;;;5052625;28;20225;-65
2022/10/08 06:38:09;;;;;;;9.82;4.93;;;11.90;98.50;;;;;;5052617;28;20656;-64
2022/10/08 06:40:39;;;;;;;8.35;6.13;;;12.00;98.80;;;;;;5050084;28;20182;-64
2022/10/08 06:43:07;;;;;;;7.97;6.15;;;12.10;98.90;;;;;;5052214;28;20206;-65
2022/10/08 06:45:39;;;;;;;6.60;5.88;;;12.20;98.80;;;;;;5051316;28;20648;-64
2022/10/08 06:48:07;;;;;;;8.02;5.45;;;12.30;98.40;;;;;;5050888;28;20193;-65
2022/10/08 06:50:36;;;;;;;7.55;5.07;;;12.30;98.30;;;;;;5053364;28;20201;-64
2022/10/08 06:53:04;;;;;;;6.88;5.05;;;12.30;97.70;;;;;;5052935;28;20572;-64
2022/10/08 06:55:32;;;;;;;10.48;5.45;;;12.40;98.00;;;;;;5052546;28;20191;-65
2022/10/08 06:58:02;;;;;;;8.32;6.45;;;12.40;98.10;;;;;;5052920;28;20183;-64
2022/10/08 07:00:29;;;;;;;9.05;5.85;;;12.40;98.00;;;;;;5052959;28;20238;-65
2022/10/08 07:02:57;;;;;;;27.23;19.88;;;12.40;98.20;;;;;;5052605;28;20195;-65
2022/10/08 07:05:24;;;;;;;21.15;17.63;;;12.50;98.60;;;;;;5052643;28;20190;-65
2022/10/08 07:07:52;;;;;;;17.83;13.52;;;12.50;98.80;;;;;;5052085;28;20186;-64
2022/10/08 07:10:19;;;;;;;14.57;11.32;;;12.50;99.30;;;;;;5052830;28;20691;-64
2022/10/08 07:12:46;;;;;;;15.32;13.82;;;12.60;99.50;;;;;;5050998;28;20261;-64
2022/10/08 07:15:15;;;;;;;17.48;12.98;;;12.70;99.80;;;;;;5051228;28;20603;-66
2022/10/08 07:17:42;;;;;;;13.98;12.57;;;12.80;99.90;;;;;;5050334;28;20190;-64
2022/10/08 07:20:09;;;;;;;11.63;9.05;;;13.00;99.90;;;;;;5052609;28;20704;-64
2022/10/08 07:22:37;;;;;;;13.27;9.15;;;13.10;99.90;;;;;;5052276;28;20218;-64
2022/10/08 07:25:09;;;;;;;12.40;9.77;;;13.30;99.90;;;;;;5052913;28;20708;-65
2022/10/08 07:27:36;;;;;;;9.75;8.70;;;13.50;99.90;;;;;;5052851;28;20278;-64
2022/10/08 07:30:04;;;;;;;9.35;8.35;;;13.70;99.90;;;;;;5052447;28;20252;-65
2022/10/08 07:32:32;;;;;;;10.02;8.07;;;13.90;99.90;;;;;;5053398;28;20194;-65
2022/10/08 07:34:59;;;;;;;9.80;7.90;;;14.10;99.90;;;;;;5048761;28;20194;-65
2022/10/08 07:37:26;;;;;;;7.90;7.10;;;14.30;99.90;;;;;;5051059;28;20468;-66
2022/10/08 07:39:53;;;;;;;9.13;8.23;;;14.50;99.90;;;;;;5050865;28;20490;-64
2022/10/08 07:42:21;;;;;;;6.40;5.67;;;14.80;99.90;;;;;;5047586;28;20475;-65
2022/10/08 07:44:48;;;;;;;10.23;7.23;;;15.00;99.90;;;;;;5051356;28;20449;-64
2022/10/08 07:47:15;;;;;;;10.00;8.13;;;15.40;99.90;;;;;;5050554;28;20445;-65
2022/10/08 07:49:44;;;;;;;9.50;8.07;;;15.80;99.70;;;;;;5050067;28;20437;-64
2022/10/08 07:52:11;;;;;;;8.63;7.07;;;16.10;98.00;;;;;;5050687;28;20448;-65
2022/10/08 07:54:38;;;;;;;10.53;5.73;;;16.30;97.40;;;;;;5049916;28;20457;-65
2022/10/08 07:57:06;;;;;;;9.10;5.33;;;16.80;97.80;;;;;;5051019;28;20567;-65
2022/10/08 07:59:34;;;;;;;7.50;4.80;;;17.20;95.60;;;;;;5050258;28;21011;-65
2022/10/08 08:02:01;;;;;;;12.13;4.23;;;17.40;95.40;;;;;;5048698;28;20544;-65
2022/10/08 08:04:28;;;;;;;7.30;4.80;;;17.50;94.00;;;;;;5051311;28;20437;-64
2022/10/08 08:06:57;;;;;;;5.87;4.73;;;17.60;93.60;;;;;;5050747;28;20503;-65
2022/10/08 08:09:24;;;;;;;7.67;4.70;;;17.60;93.30;;;;;;5049782;28;20454;-65
2022/10/08 08:11:51;;;;;;;8.20;5.20;;;17.60;93.10;;;;;;5050463;28;20447;-64
2022/10/08 08:14:20;;;;;;;11.10;6.70;;;17.70;93.00;;;;;;5051371;28;20494;-65
2022/10/08 08:16:47;;;;;;;15.67;11.20;;;17.80;93.00;;;;;;5050125;28;20491;-66
2022/10/08 08:19:19;;;;;;;8.83;6.43;;;17.90;93.10;;;;;;5048790;28;20502;-65
2022/10/08 08:21:46;;;;;;;10.33;6.63;;;18.10;93.30;;;;;;5047727;28;20446;-65
2022/10/08 08:24:15;;;;;;;9.00;5.67;;;18.30;93.10;;;;;;5050771;28;20435;-65
2022/10/08 08:26:43;;;;;;;10.03;6.60;;;18.50;92.40;;;;;;5050852;28;20506;-65
2022/10/08 08:29:12;;;;;;;7.60;6.47;;;18.60;91.40;;;;;;5050957;28;20440;-66
2022/10/08 08:31:42;;;;;;;10.00;6.40;;;18.70;91.30;;;;;;5050375;28;20905;-65
2022/10/08 08:34:11;;;;;;;8.10;5.57;;;18.80;91.10;;;;;;5050458;28;20505;-65
2022/10/08 08:36:39;;;;;;;6.90;4.80;;;18.80;90.30;;;;;;5050282;28;20534;-65
2022/10/08 08:39:16;;;;;;;7.53;5.27;;;18.90;90.50;;;;;;5050071;28;20487;-66
2022/10/08 08:41:54;;;;;;;7.37;6.37;;;18.90;88.70;;;;;;5050344;28;20447;-66
2022/10/08 08:44:25;;;;;;;9.23;7.07;;;18.90;89.00;;;;;;5050228;28;20851;-65
2022/10/08 08:46:56;;;;;;;12.90;6.40;;;19.00;89.30;;;;;;5048612;28;20443;-65
2022/10/08 08:49:28;;;;;;;9.67;7.10;;;19.20;88.80;;;;;;5050212;28;20448;-65
2022/10/08 08:51:58;;;;;;;9.70;7.10;;;19.30;88.40;;;;;;5049867;28;20448;-67
2022/10/08 08:54:26;;;;;;;9.10;7.93;;;19.50;88.70;;;;;;5046284;28;21259;-65
2022/10/08 08:56:54;;;;;;;7.73;6.93;;;19.50;86.90;;;;;;5049863;28;20460;-65
2022/10/08 08:59:27;;;;;;;8.00;6.20;;;19.50;84.60;;;;;;5049585;28;20448;-65
2022/10/08 09:01:58;;;;;;;7.40;5.50;;;19.50;85.50;;;;;;5050014;28;20463;-65
2022/10/08 09:04:38;;;;;;;8.70;5.23;;;19.60;87.30;;;;;;5049315;28;21606;-65
2022/10/08 09:07:11;;;;;;;7.33;4.83;;;19.80;86.60;;;;;;5048437;28;20966;-65
2022/10/08 09:09:45;;;;;;;7.90;5.10;;;20.00;85.10;;;;;;5048441;28;20492;-65
2022/10/08 09:12:16;;;;;;;7.40;4.70;;;20.30;84.80;;;;;;5049571;28;20441;-65
2022/10/08 09:14:48;;;;;;;8.40;5.10;;;20.70;83.60;;;;;;5048649;28;20445;-65
2022/10/08 09:17:17;;;;;;;9.87;5.20;;;21.50;87.90;;;;;;5049176;28;20441;-66
2022/10/08 09:19:45;;;;;;;8.07;4.60;;;25.00;90.50;;;;;;5048844;28;20429;-65
2022/10/08 09:22:20;;;;;;;7.93;5.37;;;29.30;61.70;;;;;;5047128;28;20449;-66
2022/10/08 09:24:52;;;;;;;5.97;3.77;;;31.70;47.50;;;;;;5048298;28;20443;-66
2022/10/08 09:27:19;;;;;;;8.87;3.70;;;32.50;40.80;;;;;;5044726;28;20436;-65
2022/10/08 09:29:46;;;;;;;8.37;4.80;;;32.00;39.70;;;;;;5049009;28;20483;-63
2022/10/08 09:32:19;;;;;;;10.73;7.47;;;31.40;40.00;;;;;;5048110;28;20506;-63
2022/10/08 09:34:47;;;;;;;12.17;9.50;;;30.80;40.30;;;;;;5047912;28;20436;-66
2022/10/08 09:37:21;;;;;;;5.17;4.40;;;30.70;42.40;;;;;;5048671;28;20571;-62
2022/10/08 09:40:20;;;;;;;5.20;4.43;;;31.20;42.20;;;;;;5048720;28;20838;-63
2022/10/08 09:43:11;;;;;;;9.17;6.67;;;32.20;38.60;;;;;;5044507;28;20561;-63
2022/10/08 09:45:43;;;;;;;8.87;4.10;;;32.10;37.50;;;;;;5047881;28;20472;-63
2022/10/08 09:48:23;;;;;;;5.53;4.50;;;31.50;35.90;;;;;;5047795;28;20498;-63
2022/10/08 09:50:57;;;;;;;5.90;3.50;;;30.60;37.80;;;;;;5048258;28;20441;-63
2022/10/08 09:53:27;;;;;;;8.67;5.10;;;29.70;39.00;;;;;;5046741;28;20517;-64
2022/10/08 09:55:58;;;;;;;5.40;4.90;;;28.80;40.30;;;;;;5047433;28;20797;-63
2022/10/08 09:58:29;;;;;;;15.03;6.03;;;28.10;41.50;;;;;;5048139;28;20834;-63
2022/10/08 10:00:58;;;;;;;9.07;5.40;;;27.60;43.20;;;;;;5046554;28;20440;-62
2022/10/08 10:03:27;;;;;;;11.97;7.53;;;27.00;44.10;;;;;;5046506;28;20555;-63
2022/10/08 10:05:57;;;;;;;24.20;14.77;;;26.40;45.10;;;;;;5048563;28;20441;-63
2022/10/08 10:09:04;;;;;;;18.23;9.10;;;25.90;46.40;;;;;;5048810;28;20479;-65
2022/10/08 10:11:46;;;;;;;12.40;7.73;;;25.40;47.90;;;;;;5040124;28;20452;-66
2022/10/08 10:14:20;;;;;;;9.13;7.70;;;24.80;49.10;;;;;;5046767;28;20535;-65
2022/10/08 10:16:53;;;;;;;11.10;4.73;;;24.40;49.60;;;;;;5045535;28;20445;-65
2022/10/08 10:19:23;;;;;;;14.47;5.90;;;24.00;51.10;;;;;;5052545;28;20531;-64
2022/10/08 10:21:55;;;;;;;19.77;5.70;;;23.60;52.00;;;;;;5051031;28;20441;-65
2022/10/08 10:24:47;;;;;;;10.03;4.90;;;23.30;53.50;;;;;;5046434;28;20483;-65
2022/10/08 10:27:20;;;;;;;9.70;4.10;;;22.90;55.00;;;;;;5051045;28;20444;-64
2022/10/08 10:29:56;;;;;;;15.90;4.87;;;22.70;56.20;;;;;;5048754;28;20449;-65
2022/10/08 10:32:28;;;;;;;9.20;4.43;;;22.50;57.20;;;;;;5047605;28;20448;-65
2022/10/08 10:35:05;;;;;;;11.00;5.07;;;22.30;58.30;;;;;;5050959;28;20454;-65
2022/10/08 10:37:40;;;;;;;11.97;4.60;;;22.20;59.40;;;;;;5049199;28;20476;-65
2022/10/08 10:40:26;;;;;;;11.30;5.80;;;22.10;60.00;;;;;;5049314;28;20797;-64
2022/10/08 10:43:06;;;;;;;17.37;5.33;;;22.00;60.90;;;;;;5048428;28;20482;-65
2022/10/08 10:45:35;;;;;;;7.30;5.13;;;21.90;61.60;;;;;;5049563;28;20522;-65
2022/10/08 10:48:02;;;;;;;7.73;5.20;;;21.70;61.90;;;;;;5049867;28;20536;-65
2022/10/08 10:50:38;;;;;;;10.07;5.00;;;21.60;62.40;;;;;;5050791;28;20429;-65
2022/10/08 10:53:15;;;;;;;11.00;4.97;;;21.50;63.10;;;;;;5050142;28;20772;-65
2022/10/08 10:55:52;;;;;;;8.33;4.80;;;21.30;63.50;;;;;;5050231;28;20432;-68
2022/10/08 10:58:35;;;;;;;12.20;6.07;;;21.20;64.10;;;;;;5046728;28;20433;-64
2022/10/08 11:01:10;;;;;;;41.83;7.10;;;21.00;64.30;;;;;;5048675;28;20448;-65
2022/10/08 11:03:45;;;;;;;18.70;5.93;;;21.00;64.60;;;;;;5049903;28;21362;-65
2022/10/08 11:06:40;;;;;;;9.30;5.37;;;20.90;65.20;;;;;;5049041;28;20486;-65
2022/10/08 11:09:12;;;;;;;6.13;4.63;;;20.90;65.80;;;;;;5048737;28;20441;-65
2022/10/08 11:11:43;;;;;;;8.13;5.60;;;20.90;66.50;;;;;;5049960;28;20514;-64
2022/10/08 11:14:36;;;;;;;7.97;5.50;;;21.00;67.10;;;;;;5049003;28;20510;-65
2022/10/08 11:17:09;;;;;;;15.23;6.27;;;21.00;67.90;;;;;;5047797;28;20552;-65
2022/10/08 11:19:45;;;;;;;9.03;5.33;;;21.10;68.20;;;;;;5046576;28;20452;-66
2022/10/08 11:22:20;;;;;;;11.37;7.73;;;21.10;68.00;;;;;;5049092;28;20456;-65
2022/10/08 11:25:17;;;;;;;15.00;5.23;;;21.10;67.40;;;;;;5047804;28;20523;-66
2022/10/08 11:27:54;;;;;;;17.60;9.83;;;21.00;67.20;;;;;;5047644;28;20441;-65
2022/10/08 11:30:24;;;;;;;13.80;8.73;;;21.00;67.30;;;;;;5047828;28;20860;-65
2022/10/08 11:32:55;;;;;;;14.00;8.27;;;20.90;67.60;;;;;;5045781;28;20796;-65
2022/10/08 11:35:31;;;;;;;15.17;7.07;;;20.90;68.10;;;;;;5049307;28;20437;-64
2022/10/08 11:38:07;;;;;;;16.23;9.47;;;20.90;68.50;;;;;;5046148;28;20502;-65
2022/10/08 11:40:39;;;;;;;26.87;19.13;;;20.90;68.60;;;;;;5049020;28;20441;-65
2022/10/08 11:43:11;;;;;;;20.03;15.50;;;20.80;69.20;;;;;;5038475;28;20480;-65
2022/10/08 11:45:41;;;;;;;34.90;23.60;;;20.70;68.90;;;;;;5050056;28;20464;-64
2022/10/08 11:48:31;;;;;;;52.73;28.93;;;20.60;69.30;;;;;;5050119;28;20437;-65
2022/10/08 11:51:32;;;;;;;20.20;11.00;;;20.50;69.90;;;;;;5049122;28;20441;-65
2022/10/08 11:54:06;;;;;;;12.03;7.40;;;20.50;70.70;;;;;;5042255;28;20456;-66
2022/10/08 11:56:35;;;;;;;9.10;5.93;;;20.40;71.30;;;;;;5039631;28;20461;-65
2022/10/08 11:59:17;;;;;;;19.13;6.50;;;20.30;71.90;;;;;;5045984;28;20460;-65
2022/10/08 12:01:55;;;;;;;29.53;8.73;;;20.20;72.60;;;;;;5047130;28;20435;-65
2022/10/08 12:04:28;;;;;;;12.60;6.87;;;20.20;73.20;;;;;;5046152;28;20480;-65
2022/10/08 12:07:05;;;;;;;24.83;11.50;;;20.10;73.60;;;;;;5047951;28;20963;-64
2022/10/08 12:10:24;;;;;;;34.70;19.57;;;20.10;74.80;;;;;;5047936;28;20524;-66
2022/10/08 12:13:25;;;;;;;24.57;14.53;;;20.00;75.60;;;;;;5047794;28;20445;-65
2022/10/08 12:16:05;;;;;;;20.27;15.03;;;19.90;76.60;;;;;;5046944;28;20449;-65
2022/10/08 12:18:52;;;;;;;26.23;13.80;;;19.80;77.10;;;;;;5046413;28;20813;-66
2022/10/08 12:21:50;;;;;;;12.60;8.73;;;19.70;78.10;;;;;;5046886;28;20871;-64
2022/10/08 12:24:53;;;;;;;14.07;7.60;;;19.60;79.00;;;;;;4986001;28;20480;-64
2022/10/08 12:27:29;;;;;;;14.70;10.47;;;19.60;79.20;;;;;;5028095;28;20954;-64
2022/10/08 12:30:01;;;;;;;8.67;6.47;;;19.50;80.40;;;;;;5048653;28;20506;-65
2022/10/08 12:32:30;;;;;;;10.23;5.77;;;19.40;81.80;;;;;;5045879;28;20447;-62
2022/10/08 12:35:00;;;;;;;9.70;6.57;;;19.40;82.20;;;;;;5047781;28;20528;-62
2022/10/08 12:37:52;;;;;;;8.80;6.40;;;19.30;82.80;;;;;;5049819;28;20564;-62
2022/10/08 12:40:31;;;;;;;7.27;5.90;;;19.30;83.80;;;;;;5049875;28;20784;-62
2022/10/08 12:43:11;;;;;;;7.80;6.57;;;19.20;84.50;;;;;;5049842;28;21008;-63
2022/10/08 12:45:48;;;;;;;12.73;7.33;;;19.30;84.70;;;;;;5050519;28;20531;-62
2022/10/08 12:48:28;;;;;;;10.40;5.90;;;19.20;85.50;;;;;;5050045;28;20441;-61
2022/10/08 12:51:18;;;;;;;10.80;5.57;;;19.20;86.00;;;;;;5050396;28;20477;-64
2022/10/08 12:53:46;;;;;;;8.93;5.93;;;19.20;86.60;;;;;;5047151;28;20433;-64
2022/10/08 12:56:22;;;;;;;9.17;6.60;;;19.20;86.90;;;;;;5049744;28;20437;-65
2022/10/08 12:58:50;;;;;;;10.23;6.43;;;19.10;87.20;;;;;;5049964;28;20437;-64
2022/10/08 13:01:20;;;;;;;10.10;6.60;;;19.10;87.20;;;;;;5050088;28;20974;-65
2022/10/08 13:03:47;;;;;;;12.57;6.43;;;19.10;87.20;;;;;;5049712;28;20480;-65